Latest Coastal Weather Observations for Moorabbin Airport

IDV60701

Issued at 5:52 am EST Monday 24 April 2017 (issued every 10 minutes, with the page automatically refreshed every 10 minutes)

About coastal observations | Map of coastal stations | Coastal observations for VIC | Marine services | Other Formats
Station Details ID: 086077 Name: MOORABBIN AIRPORT Lat: -37.98 Lon: 145.10 Height: 12.1 m
Data from the previous 72 hours. | See also: Recent months at Moorabbin Airport
Date/Time
EST
Temp
°C
Wind Pressure Rain since
9am
mm
Weather Cloud Vis
km
Sea
Height
m
Swell
Dir  Spd
kts
Gust
kts
hPa Trend Height
m
Period
s
Dir
24/05:30am 15.5 E 3 4 1020.7 - 0.0 - Partly cloudy 8 - - - -
24/05:00am 15.6 NE 2 3 1020.7 - 0.0 - Partly cloudy 9 - - - -
24/04:30am 15.8 NE 4 5 1020.7 - 0.0 - Partly cloudy 9 - - - -
24/04:00am 16.0 ENE 3 4 1020.8 - 0.0 - Partly cloudy 9 - - - -
24/03:30am 16.1 CALM 0 0 1020.9 - 0.0 - Partly cloudy 7 - - - -
24/03:29am 16.2 CALM 0 0 1020.8 - 0.0 - Cloudy 6 - - - -
24/03:19am 16.0 CALM 0 0 1020.9 - 0.0 - Partly cloudy 5 - - - -
24/03:06am 16.1 NE 1 4 1021.1 - 0.0 - Partly cloudy 6 - - - -
24/03:00am 16.1 NE 3 4 1021.0 - 0.0 - Cloudy 6 - - - -
24/02:38am 16.2 NNE 4 6 1021.3 - 0.0 - Partly cloudy 5 - - - -
24/02:30am 16.1 NE 5 6 1021.2 - 0.0 - Partly cloudy 5 - - - -
24/02:24am 16.1 NE 4 5 1021.2 - 0.0 - Partly cloudy 5 - - - -
24/02:22am 16.1 NE 4 5 1021.3 - 0.0 - Partly cloudy 5 - - - -
24/02:00am 16.1 NE 5 6 1021.5 - 0.0 - Partly cloudy 5 - - - -
24/01:59am 16.0 NE 5 6 1021.5 - 0.0 - Partly cloudy 5 - - - -
24/01:30am 16.0 ESE 3 4 1021.7 - 0.0 - Partly cloudy 8 - - - -
24/01:00am 16.1 CALM 0 0 1021.9 - 0.0 - Cloudy 8 - - - -
24/12:30am 15.9 SE 4 4 1022.1 - 0.0 - Partly cloudy 9 - - - -
24/12:00am 15.6 CALM 0 0 1022.3 - 0.0 - Cloudy 9 - - - -
 
Date/Time
EST
Temp
°C
Wind Pressure Rain since
9am
mm
Weather Cloud Vis
km
Sea
Height
m
Swell
Dir  Spd
kts
Gust
kts
hPa Trend Height
m
Period
s
Dir
23/11:30pm 15.3 CALM 0 0 1022.6 - 0.0 - Partly cloudy 9 - - - -
23/11:20pm 15.4 CALM 0 0 1022.7 - 0.0 - Partly cloudy 8 - - - -
23/11:16pm 15.5 CALM 0 0 1022.8 - 0.0 - Partly cloudy 8 - - - -
23/11:01pm 15.2 NNW 1 3 1022.9 - 0.0 - Partly cloudy 5 - - - -
23/11:00pm 15.3 NNW 1 3 1022.9 - 0.0 - Partly cloudy 6 - - - -
23/10:52pm 15.8 NNW 3 3 1023.0 - 0.0 - Partly cloudy 8 - - - -
23/10:30pm 15.9 N 4 4 1023.2 - 0.0 - Partly cloudy 8 - - - -
23/10:09pm 15.5 NNE 4 5 1023.3 - 0.0 - Partly cloudy 9 - - - -
23/10:00pm 15.0 NNE 4 5 1023.4 - 0.0 - Partly cloudy 10 - - - -
23/09:30pm 16.1 CALM 0 0 1023.5 - 0.0 - Partly cloudy 8 - - - -
23/09:00pm 16.4 SSW 2 5 1023.4 - 0.0 - - 10 - - - -
23/08:30pm 16.5 SSW 4 5 1023.4 - 0.0 - Partly cloudy 10 - - - -
23/08:23pm 16.5 S 4 5 1023.4 - 0.0 - Partly cloudy 10 - - - -
23/08:00pm 17.0 SSW 5 6 1023.4 - 0.0 - Partly cloudy 10 - - - -
23/07:53pm 16.8 SSW 4 6 1023.4 - 0.0 - Partly cloudy 10 - - - -
23/07:30pm 17.1 SSW 5 6 1023.3 - 0.0 - Partly cloudy 10 - - - -
23/07:00pm 17.2 SW 5 7 1023.2 - 0.0 - Partly cloudy 10 - - - -
23/06:30pm 17.2 SW 7 9 1022.9 - 0.0 - Partly cloudy 10 - - - -
23/06:00pm 17.2 SSW 6 8 1022.6 - 0.0 - - 10 - - - -
23/05:30pm 17.7 SSW 6 9 1022.5 - 0.0 - - 10 - - - -
23/05:00pm 18.3 SSW 7 9 1022.4 - 0.0 - - 10 - - - -
23/04:30pm 19.0 S 8 11 1022.2 - 0.0 - - 10 - - - -
23/04:00pm 19.3 S 8 11 1022.2 - 0.0 - - 10 - - - -
23/03:30pm 19.7 SSW 8 11 1022.1 - 0.0 - - 10 - - - -
23/03:00pm 20.4 SW 7 9 1022.1 - 0.0 - - 10 - - - -
23/02:30pm 20.2 SW 8 10 1022.2 - 0.0 - - 10 - - - -
23/02:00pm 21.1 SSW 7 9 1022.2 - 0.0 - - 10 - - - -
23/01:30pm 20.9 WNW 6 8 1022.4 - 0.0 - Partly cloudy 10 - - - -
23/01:00pm 20.5 WNW 6 9 1022.9 - 0.0 - Partly cloudy 10 - - - -
23/12:30pm 20.0 WNW 5 9 1023.2 - 0.0 - Partly cloudy 10 - - - -
23/12:00pm 19.0 WSW 7 10 1023.7 - 0.0 - Cloudy 10 - - - -
23/11:30am 18.9 WSW 6 8 1024.2 - 0.0 - Partly cloudy 10 - - - -
23/11:00am 19.5 WSW 6 8 1024.5 - 0.0 - Cloudy 10 - - - -
23/10:30am 18.6 NW 4 5 1024.5 - 0.0 - Partly cloudy 10 - - - -
23/10:00am 18.0 NNW 5 7 1024.6 - 0.0 - Cloudy 10 - - - -
23/09:41am 18.1 NNW 6 8 1024.7 - 0.0 - Cloudy 10 - - - -
23/09:30am 17.5 NNW 6 8 1024.7 - 0.0 - Cloudy 10 - - - -
23/09:00am 17.3 NNW 5 7 1024.7 - 1.8 - Cloudy 10 - - - -
23/08:30am 16.8 NNW 5 7 1024.6 - 1.8 - Cloudy 10 - - - -
23/08:16am 16.5 NNW 5 6 1024.5 - 1.8 - Partly cloudy 10 - - - -
23/08:00am 15.9 N 5 6 1024.4 - 1.8 - - 10 - - - -
23/07:30am 14.5 N 4 5 1024.1 - 1.8 - Partly cloudy 8 - - - -
23/07:09am 14.3 N 3 4 1024.1 - 1.8 - Partly cloudy 10 - - - -
23/07:00am 14.7 NNW 3 4 1024.1 - 1.8 - Partly cloudy 10 - - - -
23/06:38am 14.5 NNW 3 4 1023.9 - 1.8 - Partly cloudy 8 - - - -
23/06:30am 14.4 N 2 4 1023.8 - 1.8 - Cloudy 6 - - - -
23/06:10am 13.9 NNW 3 4 1023.7 - 1.8 - Partly cloudy 4 - - - -
23/06:07am 13.7 NNW 3 4 1023.7 - 1.8 - Partly cloudy 5 - - - -
23/06:00am 14.4 NNW 3 5 1023.6 - 1.8 - Mostly clear 8 - - - -
23/05:33am 14.5 NNW 5 5 1023.5 - 1.8 - - 9 - - - -
23/05:30am 14.5 NNW 5 5 1023.5 - 1.8 - - 8 - - - -
23/05:12am 14.0 NNW 2 3 1023.2 - 1.8 - - 5 - - - -
23/05:00am 15.1 NNW 3 4 1023.1 - 1.8 - - 10 - - - -
23/04:30am 15.6 NNW 5 6 1023.1 - 1.8 - Partly cloudy 10 - - - -
23/04:00am 15.8 NNW 4 6 1023.2 - 1.8 - Cloudy 10 - - - -
23/03:30am 15.1 NNW 4 5 1023.2 - 1.8 - Partly cloudy 10 - - - -
23/03:00am 15.2 NNW 4 5 1023.2 - 1.8 - Partly cloudy 10 - - - -
23/02:30am 15.5 NW 5 6 1023.4 - 1.8 - Partly cloudy 10 - - - -
23/02:00am 15.8 NW 4 5 1023.5 - 1.8 - Partly cloudy 10 - - - -
23/01:30am 16.5 NNW 4 5 1023.6 - 1.8 - Cloudy 10 - - - -
23/01:00am 16.5 NW 4 5 1023.5 - 1.8 - Partly cloudy 10 - - - -
23/12:30am 16.8 WNW 4 6 1023.6 - 1.8 - Partly cloudy 10 - - - -
23/12:00am 16.9 WNW 4 6 1023.7 - 1.8 - Cloudy 10 - - - -
 
Date/Time
EST
Temp
°C
Wind Pressure Rain since
9am
mm
Weather Cloud Vis
km
Sea
Height
m
Swell
Dir  Spd
kts
Gust
kts
hPa Trend Height
m
Period
s
Dir
22/11:39pm 17.0 NW 5 7 1023.7 - 1.8 - Cloudy 10 - - - -
22/11:30pm 16.9 WNW 5 8 1023.7 - 1.8 - Cloudy 10 - - - -
22/11:02pm 17.0 WNW 5 7 1023.8 - 1.8 - Cloudy 10 - - - -
22/11:00pm 17.0 WNW 6 7 1023.8 - 1.8 - Cloudy 10 - - - -
22/10:30pm 16.9 WNW 4 5 1023.8 - 1.8 - Cloudy 10 - - - -
22/10:00pm 16.9 WNW 3 4 1023.8 - 1.8 - Partly cloudy 10 - - - -
22/09:30pm 17.2 CALM 0 3 1023.7 - 1.8 - Cloudy 10 - - - -
22/09:00pm 17.1 CALM 0 3 1023.5 - 1.8 - Cloudy 10 - - - -
22/08:30pm 17.5 WSW 3 4 1023.2 - 1.8 - Cloudy 10 - - - -
22/08:00pm 17.3 SSW 4 6 1023.0 - 1.8 - - 10 - - - -
22/07:30pm 18.0 SSW 7 8 1022.7 - 1.8 - Partly cloudy 10 - - - -
22/07:00pm 19.3 W 1 6 1022.7 - 1.8 - Partly cloudy 10 - - - -
22/06:30pm 19.0 NNE 3 4 1022.3 - 1.8 - Cloudy 10 - - - -
22/06:00pm 19.4 CALM 0 0 1022.0 - 1.8 - Cloudy 10 - - - -
22/05:30pm 19.6 SW 1 4 1021.8 - 1.8 - Partly cloudy 10 - - - -
22/05:00pm 20.0 WSW 1 5 1021.7 - 1.8 - Partly cloudy 10 - - - -
22/04:48pm 19.9 NNW 1 5 1021.6 - 1.8 - Partly cloudy 10 - - - -
22/04:30pm 19.7 W 7 10 1021.5 - 1.2 - Partly cloudy 5 - - - -
22/04:29pm 19.8 WSW 7 10 1021.6 - 1.2 - Partly cloudy 5 - - - -
22/04:00pm 21.3 N 6 10 1021.3 - 0.0 - Partly cloudy 10 - - - -
22/03:30pm 21.9 NNW 8 11 1021.3 - 0.0 - Partly cloudy 10 - - - -
22/03:00pm 22.7 N 11 15 1021.1 - 0.0 - Partly cloudy 10 - - - -
22/02:30pm 22.6 N 12 18 1021.1 - 0.0 - Partly cloudy 10 - - - -
22/02:00pm 21.8 NNW 12 18 1021.3 - 0.0 - Partly cloudy 10 - - - -
22/01:30pm 22.4 NNW 12 18 1021.4 - 0.0 - Partly cloudy 10 - - - -
22/01:00pm 22.3 NNW 13 17 1021.8 - 0.0 - Partly cloudy 10 - - - -
22/12:30pm 21.8 NNW 12 16 1022.3 - 0.0 - Partly cloudy 10 - - - -
22/12:00pm 21.5 N 12 15 1022.5 - 0.0 - Cloudy 10 - - - -
22/11:30am 21.0 NNW 12 18 1022.9 - 0.0 - Partly cloudy 10 - - - -
22/11:00am 20.9 N 14 18 1023.0 - 0.0 - Partly cloudy 10 - - - -
22/10:30am 20.1 NNW 12 17 1023.2 - 0.0 - Partly cloudy 10 - - - -
22/10:00am 19.3 NNW 13 19 1023.3 - 0.0 - Partly cloudy 10 - - - -
22/09:30am 19.2 N 14 18 1023.3 - 0.0 - Partly cloudy 10 - - - -
22/09:00am 18.9 N 11 14 1023.1 - 1.0 - Mostly cloudy 10 - - - -
22/08:30am 17.6 N 11 16 1023.1 - 1.0 - Partly cloudy 10 - - - -
22/08:00am 17.3 N 10 13 1023.0 - 1.0 - Cloudy 10 - - - -
22/07:30am 16.9 N 9 13 1022.6 - 1.0 - Partly cloudy 10 - - - -
22/07:00am 16.6 N 9 11 1022.2 - 1.0 - Partly cloudy 10 - - - -
22/06:30am 16.8 N 9 11 1021.9 - 1.0 - Cloudy 10 - - - -
22/06:00am 16.6 N 7 9 1021.8 - 1.0 - Cloudy 10 - - - -
22/05:30am 16.7 N 6 9 1021.7 - 1.0 - Partly cloudy 10 - - - -
22/05:00am 17.0 N 9 11 1021.4 - 1.0 - Partly cloudy 10 - - - -
22/04:30am 17.1 N 10 13 1021.2 - 1.0 - Partly cloudy 10 - - - -
22/04:00am 17.1 N 11 13 1021.3 - 1.0 - Partly cloudy 10 - - - -
22/03:30am 16.9 N 9 12 1021.3 - 1.0 - Partly cloudy 10 - - - -
22/03:00am 16.9 N 8 11 1021.3 - 1.0 - Cloudy 10 - - - -
22/02:30am 16.8 N 9 13 1021.3 - 1.0 - Partly cloudy 10 - - - -
22/02:00am 17.3 N 10 14 1021.4 - 1.0 - Partly cloudy 10 - - - -
22/01:30am 17.3 N 11 17 1021.5 - 1.0 - Cloudy 10 - - - -
22/01:00am 17.3 N 8 10 1021.6 - 1.0 - Partly cloudy 10 - - - -
22/12:30am 17.1 N 8 11 1021.6 - 1.0 - Partly cloudy 10 - - - -
22/12:00am 17.3 N 10 13 1021.5 - 1.0 - Cloudy 10 - - - -
 
Date/Time
EST
Temp
°C
Wind Pressure Rain since
9am
mm
Weather Cloud Vis
km
Sea
Height
m
Swell
Dir  Spd
kts
Gust
kts
hPa Trend Height
m
Period
s
Dir
21/11:30pm 17.3 N 11 14 1021.4 - 1.0 - Partly cloudy 10 - - - -
21/11:00pm 17.6 N 11 14 1021.5 - 1.0 - Cloudy 10 - - - -
21/10:30pm 17.4 N 11 14 1021.3 - 1.0 - Partly cloudy 10 - - - -
21/10:00pm 17.0 N 9 11 1021.4 - 1.0 - Partly cloudy 10 - - - -
21/09:30pm 17.0 N 10 13 1021.2 - 1.0 - Partly cloudy 10 - - - -
21/09:00pm 17.0 N 9 11 1021.3 - 1.0 - Cloudy 10 - - - -
21/08:30pm 16.8 N 9 11 1021.1 - 1.0 - Partly cloudy 10 - - - -
21/08:00pm 16.8 N 10 13 1021.0 - 1.0 - Partly cloudy 10 - - - -
21/07:30pm 16.9 N 12 16 1020.8 - 1.0 - Partly cloudy 10 - - - -
21/07:00pm 17.0 N 11 14 1020.8 - 1.0 - Partly cloudy 10 - - - -
21/06:30pm 17.0 N 10 12 1020.6 - 1.0 - Partly cloudy 10 - - - -
21/06:00pm 17.2 N 11 15 1020.3 - 0.8 - Cloudy 10 - - - -
21/05:30pm 17.3 N 12 17 1020.1 - 0.8 - Partly cloudy 10 - - - -
21/05:00pm 17.3 N 13 16 1020.0 - 0.8 - Cloudy 10 - - - -
21/04:30pm 17.2 N 16 23 1019.8 - 0.6 - Partly cloudy 10 - - - -
21/04:00pm 17.6 N 16 23 1019.6 - 0.6 - Partly cloudy 10 - - - -
21/03:30pm 18.2 N 16 21 1019.5 - 0.6 - Partly cloudy 10 - - - -
21/03:00pm 19.2 N 19 23 1019.3 - 0.6 - Cloudy 10 - - - -
21/02:30pm 19.9 N 18 28 1019.2 - 0.6 - Partly cloudy 10 - - - -
21/02:00pm 20.0 N 18 24 1019.2 - 0.6 - Cloudy 10 - - - -
21/01:30pm 20.0 N 20 25 1019.2 - 0.6 - Partly cloudy 10 - - - -
21/01:00pm 20.7 N 19 25 1019.3 - 0.6 - Partly cloudy 10 - - - -
21/12:30pm 20.7 N 17 22 1019.4 - 0.6 - Partly cloudy 10 - - - -
21/12:00pm 20.5 N 17 24 1019.7 - 0.6 - Cloudy 10 - - - -
21/11:30am 19.6 NNE 16 23 1020.0 - 0.6 - Partly cloudy 10 - - - -
21/11:00am 18.8 NNE 14 20 1020.0 - 0.6 - Partly cloudy 10 - - - -
21/10:30am 17.9 NNE 13 19 1020.4 - 0.4 - Partly cloudy 10 - - - -
21/10:00am 17.9 NNE 15 19 1020.5 - 0.4 - Partly cloudy 10 - - - -
21/09:30am 17.6 NE 13 15 1020.8 - 0.2 - Partly cloudy 10 - - - -
21/09:00am 16.8 ENE 7 10 1021.1 - 8.4 Recent precip. Cloudy 10 - - - -
21/08:30am 16.4 ENE 9 11 1021.1 - 8.2 - Partly cloudy 7 - - - -
21/08:00am 16.2 E 9 11 1021.2 - 7.6 - Partly cloudy 10 - - - -
21/07:30am 16.2 E 9 11 1020.9 - 7.0 - Cloudy 6 - - - -
21/07:16am 16.1 E 9 11 1020.8 - 6.4 - Cloudy 6 - - - -
21/07:00am 16.2 E 8 9 1020.9 - 5.6 - Partly cloudy 5 - - - -
21/06:58am 16.2 E 8 9 1020.9 - 5.4 - Partly cloudy 5 - - - -
21/06:30am 16.0 E 6 7 1020.8 - 4.0 - Cloudy 7 - - - -
21/06:00am 16.8 E 6 8 1020.9 - 2.6 Rain Cloudy 9 - - - -

Other Formats:

Comma delimited format used in spreadsheet applications
http://www.bom.gov.au/fwo/IDV60701/IDV60701.94870.axf

JavaScript Object Notation format (JSON) in row-major order
http://www.bom.gov.au/fwo/IDV60701/IDV60701.94870.json